createdAt,value
2017-07-15T00:00:52.865Z,12.39
2017-07-15T00:01:52.889Z,12.33
2017-07-15T00:02:52.888Z,12.29
2017-07-15T00:03:52.890Z,12.22
2017-07-15T00:04:52.890Z,12.20
2017-07-15T00:05:52.928Z,12.14
2017-07-15T00:06:52.861Z,12.10
2017-07-15T00:07:52.928Z,12.05
2017-07-15T00:08:53.021Z,12.02
2017-07-15T00:09:52.893Z,11.99
2017-07-15T00:10:52.877Z,11.97
2017-07-15T00:11:52.896Z,11.92
2017-07-15T00:12:52.897Z,11.91
2017-07-15T00:13:52.943Z,11.86
2017-07-15T00:14:52.982Z,11.83
2017-07-15T00:15:52.888Z,11.87
2017-07-15T00:16:52.944Z,11.89
2017-07-15T00:17:52.946Z,11.87
2017-07-15T00:18:52.965Z,11.84
2017-07-15T00:19:52.912Z,11.80
2017-07-15T00:20:52.843Z,11.80
2017-07-15T00:21:52.884Z,11.75
2017-07-15T00:22:52.844Z,11.73
2017-07-15T00:23:52.904Z,11.75
2017-07-15T00:24:52.874Z,11.75
2017-07-15T00:25:52.901Z,11.72
2017-07-15T00:26:52.852Z,11.71
2017-07-15T00:27:52.862Z,11.71
2017-07-15T00:28:52.905Z,11.71
2017-07-15T00:29:52.944Z,11.69
2017-07-15T00:30:52.874Z,11.67
2017-07-15T00:31:52.903Z,11.65
2017-07-15T00:32:52.902Z,11.64
2017-07-15T00:33:52.902Z,11.65
2017-07-15T00:34:52.903Z,11.65
2017-07-15T00:35:52.903Z,11.65
2017-07-15T00:36:52.882Z,11.65
2017-07-15T00:37:52.941Z,11.68
2017-07-15T00:38:52.948Z,11.72
2017-07-15T00:39:52.873Z,11.79
2017-07-15T00:40:52.902Z,11.80
2017-07-15T00:41:52.903Z,11.82
2017-07-15T00:42:52.884Z,11.86
2017-07-15T00:43:52.833Z,11.86
2017-07-15T00:44:52.835Z,11.89
2017-07-15T00:45:52.935Z,11.89
2017-07-15T00:46:52.848Z,11.89
2017-07-15T00:47:52.846Z,11.94
2017-07-15T00:48:52.848Z,11.91
2017-07-15T00:49:52.839Z,11.92
2017-07-15T00:50:52.839Z,11.92
2017-07-15T00:51:52.841Z,11.94
2017-07-15T00:52:52.940Z,11.94
2017-07-15T00:53:52.916Z,11.95
2017-07-15T00:54:52.873Z,11.97
2017-07-15T00:55:52.918Z,11.95
2017-07-15T00:56:52.892Z,12.01
2017-07-15T00:57:52.918Z,12.03
2017-07-15T00:58:52.900Z,12.06
2017-07-15T00:59:52.870Z,12.06
2017-07-15T01:00:52.896Z,12.10
2017-07-15T01:01:52.924Z,12.13
2017-07-15T01:03:52.885Z,12.18
2017-07-15T01:04:52.966Z,12.21
2017-07-15T01:05:52.913Z,12.22
2017-07-15T01:06:52.924Z,12.21
2017-07-15T01:07:52.970Z,12.21
2017-07-15T01:08:52.900Z,12.22
2017-07-15T01:09:52.898Z,12.21
2017-07-15T01:10:52.901Z,12.22
2017-07-15T01:11:52.872Z,12.25
2017-07-15T01:12:52.881Z,12.28
2017-07-15T01:13:52.908Z,12.29
2017-07-15T01:14:52.930Z,12.35
2017-07-15T01:15:52.942Z,12.37
2017-07-15T01:16:52.912Z,12.42
2017-07-15T01:17:52.910Z,12.47
2017-07-15T01:18:52.928Z,12.50
2017-07-15T01:19:52.906Z,12.51
2017-07-15T01:20:52.911Z,12.55
2017-07-15T01:21:52.935Z,12.61
2017-07-15T01:22:52.915Z,12.65
2017-07-15T01:23:52.967Z,12.64
2017-07-15T01:24:52.945Z,12.65
2017-07-15T01:25:52.952Z,12.68
2017-07-15T01:26:52.924Z,12.68
2017-07-15T01:27:52.971Z,12.69
2017-07-15T01:28:52.979Z,12.71
2017-07-15T01:29:52.911Z,12.72
2017-07-15T01:30:52.948Z,12.72
2017-07-15T01:31:52.963Z,12.73
2017-07-15T01:32:52.923Z,12.75
2017-07-15T01:33:52.985Z,12.75
2017-07-15T01:34:53.014Z,12.76
2017-07-15T01:35:52.980Z,12.76
2017-07-15T01:36:52.986Z,12.76
2017-07-15T01:37:52.943Z,12.76
2017-07-15T01:38:52.971Z,12.77
2017-07-15T01:39:52.928Z,12.77
2017-07-15T01:40:52.920Z,12.84
2017-07-15T01:41:52.989Z,12.89
2017-07-15T01:42:52.919Z,12.91
2017-07-15T01:43:52.993Z,12.94
2017-07-15T01:44:52.986Z,12.92
2017-07-15T01:45:52.973Z,12.92
2017-07-15T01:46:52.927Z,12.92
2017-07-15T01:47:52.948Z,12.91
2017-07-15T01:48:52.996Z,12.91
2017-07-15T01:49:52.922Z,12.87
2017-07-15T01:50:53.017Z,12.87
2017-07-15T01:51:52.959Z,12.86
2017-07-15T01:52:53.021Z,12.83
2017-07-15T01:53:52.903Z,12.82
2017-07-15T01:54:52.892Z,12.82
2017-07-15T01:55:52.850Z,12.77
2017-07-15T01:56:52.917Z,12.79
2017-07-15T01:57:52.917Z,12.79
2017-07-15T01:58:52.898Z,12.79
2017-07-15T01:59:52.933Z,12.77
2017-07-15T02:00:52.840Z,12.76
2017-07-15T02:01:52.919Z,12.76
2017-07-15T02:02:52.925Z,12.75
2017-07-15T02:03:52.931Z,12.72
2017-07-15T02:04:52.985Z,12.72
2017-07-15T02:05:52.970Z,12.69
2017-07-15T02:06:52.938Z,12.68
2017-07-15T02:07:52.937Z,12.68
2017-07-15T02:08:52.937Z,12.71
2017-07-15T02:09:52.973Z,12.72
2017-07-15T02:10:52.961Z,12.71
2017-07-15T02:11:53.018Z,12.76
2017-07-15T02:12:52.931Z,12.79
2017-07-15T02:13:52.986Z,12.82
2017-07-15T02:14:52.945Z,12.86
2017-07-15T02:15:52.929Z,12.86
2017-07-15T02:16:52.939Z,12.87
2017-07-15T02:17:52.958Z,12.91
2017-07-15T02:18:52.967Z,12.92
2017-07-15T02:19:52.953Z,12.95
2017-07-15T02:20:52.924Z,12.95
2017-07-15T02:21:53.091Z,12.98
2017-07-15T02:22:52.940Z,12.96
2017-07-15T02:23:52.935Z,12.98
2017-07-15T02:24:52.965Z,12.96
2017-07-15T02:25:52.964Z,12.95
2017-07-15T02:26:52.970Z,12.96
2017-07-15T02:27:52.964Z,12.94
2017-07-15T02:28:53.002Z,12.94
2017-07-15T02:29:53.002Z,12.92
2017-07-15T02:30:53.000Z,12.91
2017-07-15T02:31:53.005Z,12.91
2017-07-15T02:32:52.970Z,12.89
2017-07-15T02:33:53.024Z,12.87
2017-07-15T02:34:52.970Z,12.86
2017-07-15T02:35:52.966Z,12.84
2017-07-15T02:36:52.938Z,12.84
2017-07-15T02:37:52.942Z,12.82
2017-07-15T02:38:52.943Z,12.80
2017-07-15T02:39:53.005Z,12.79
2017-07-15T02:40:53.009Z,12.76
2017-07-15T02:41:52.973Z,12.75
2017-07-15T02:42:52.947Z,12.72
2017-07-15T02:43:52.971Z,12.69
2017-07-15T02:44:52.929Z,12.66
2017-07-15T02:45:53.021Z,12.65
2017-07-15T02:46:52.934Z,12.62
2017-07-15T02:47:52.929Z,12.60
2017-07-15T02:48:52.980Z,12.60
2017-07-15T02:49:52.931Z,12.62
2017-07-15T02:50:52.938Z,12.61
2017-07-15T02:51:52.937Z,12.62
2017-07-15T02:52:52.944Z,12.62
2017-07-15T02:53:52.928Z,12.62
2017-07-15T02:54:52.979Z,12.61
2017-07-15T02:55:52.913Z,12.64
2017-07-15T02:56:53.027Z,12.62
2017-07-15T02:57:53.022Z,12.62
2017-07-15T02:58:52.981Z,12.61
2017-07-15T02:59:52.970Z,12.61
2017-07-15T03:01:52.987Z,12.60
2017-07-15T03:02:52.934Z,12.60
2017-07-15T03:03:53.033Z,12.62
2017-07-15T03:04:52.978Z,12.62
2017-07-15T03:05:52.947Z,12.64
2017-07-15T03:06:52.936Z,12.62
2017-07-15T03:07:52.936Z,12.65
2017-07-15T03:08:52.995Z,12.66
2017-07-15T03:09:53.033Z,12.66
2017-07-15T03:10:52.940Z,12.65
2017-07-15T03:11:52.944Z,12.65
2017-07-15T03:12:52.984Z,12.65
2017-07-15T03:13:52.978Z,12.69
2017-07-15T03:14:53.025Z,12.69
2017-07-15T03:15:53.029Z,12.71
2017-07-15T03:16:52.971Z,12.73
2017-07-15T03:17:53.034Z,12.73
2017-07-15T03:18:52.997Z,12.75
2017-07-15T03:19:52.968Z,12.79
2017-07-15T03:20:52.967Z,12.80
2017-07-15T03:21:52.969Z,12.83
2017-07-15T03:22:52.968Z,12.83
2017-07-15T03:23:53.031Z,12.86
2017-07-15T03:24:53.046Z,12.86
2017-07-15T03:25:53.005Z,12.84
2017-07-15T03:26:52.980Z,12.86
2017-07-15T03:27:53.052Z,12.86
2017-07-15T03:28:53.081Z,12.87
2017-07-15T03:29:52.977Z,12.87
2017-07-15T03:30:53.017Z,12.84
2017-07-15T03:31:53.042Z,12.86
2017-07-15T03:32:52.993Z,12.84
2017-07-15T03:33:53.106Z,12.86
2017-07-15T03:34:53.013Z,12.84
2017-07-15T03:35:52.982Z,12.86
2017-07-15T03:36:53.012Z,12.87
2017-07-15T03:37:53.020Z,12.86
2017-07-15T03:38:53.074Z,12.87
2017-07-15T03:39:53.055Z,12.84
2017-07-15T03:40:53.078Z,12.86
2017-07-15T03:41:53.012Z,12.84
2017-07-15T03:42:53.045Z,12.86
2017-07-15T03:43:52.987Z,12.82
2017-07-15T03:44:53.018Z,12.80
2017-07-15T03:45:53.076Z,12.77
2017-07-15T03:46:53.009Z,12.75
2017-07-15T03:47:52.990Z,12.76
2017-07-15T03:48:52.983Z,12.75
2017-07-15T03:49:52.985Z,12.72
2017-07-15T03:50:52.980Z,12.69
2017-07-15T03:51:53.015Z,12.69
2017-07-15T03:52:52.980Z,12.71
2017-07-15T03:53:53.009Z,12.69
2017-07-15T03:54:53.026Z,12.69
2017-07-15T03:55:53.047Z,12.66
2017-07-15T03:56:53.002Z,12.65
2017-07-15T03:57:53.085Z,12.65
2017-07-15T03:58:53.015Z,12.65
2017-07-15T03:59:53.033Z,12.64
2017-07-15T04:00:53.050Z,12.64
2017-07-15T04:01:53.049Z,12.65
2017-07-15T04:02:52.998Z,12.64
2017-07-15T04:03:53.073Z,12.64
2017-07-15T04:04:53.056Z,12.65
2017-07-15T04:05:53.030Z,12.66
2017-07-15T04:06:52.995Z,12.65
2017-07-15T04:07:52.995Z,12.65
2017-07-15T04:08:53.018Z,12.62
2017-07-15T04:09:52.997Z,12.62
2017-07-15T04:10:52.972Z,12.64
2017-07-15T04:11:53.062Z,12.64
2017-07-15T04:12:52.978Z,12.64
2017-07-15T04:13:53.143Z,12.64
2017-07-15T04:14:53.077Z,12.64
2017-07-15T04:15:53.057Z,12.65
2017-07-15T04:16:53.008Z,12.65
2017-07-15T04:17:53.078Z,12.66
2017-07-15T04:18:53.062Z,12.65
2017-07-15T04:19:53.010Z,12.66
2017-07-15T04:20:53.062Z,12.68
2017-07-15T04:21:53.080Z,12.69
2017-07-15T04:22:53.014Z,12.66
2017-07-15T04:23:53.034Z,12.68
2017-07-15T04:24:53.049Z,12.65
2017-07-15T04:25:53.082Z,12.65
2017-07-15T04:26:53.037Z,12.64
2017-07-15T04:27:53.091Z,12.61
2017-07-15T04:28:53.103Z,12.60
2017-07-15T04:29:53.043Z,12.61
2017-07-15T04:30:53.013Z,12.61
2017-07-15T04:31:53.050Z,12.60
2017-07-15T04:32:53.011Z,12.60
2017-07-15T04:33:53.046Z,12.60
2017-07-15T04:34:53.045Z,12.62
2017-07-15T04:35:53.017Z,12.65
2017-07-15T04:36:53.047Z,12.68
2017-07-15T04:37:53.105Z,12.68
2017-07-15T04:38:53.022Z,12.66
2017-07-15T04:39:53.074Z,12.66
2017-07-15T04:40:53.089Z,12.65
2017-07-15T04:41:53.074Z,12.68
2017-07-15T04:42:53.052Z,12.68
2017-07-15T04:43:53.080Z,12.69
2017-07-15T04:44:53.115Z,12.72
2017-07-15T04:45:53.029Z,12.73
2017-07-15T04:46:53.063Z,12.76
2017-07-15T04:47:53.117Z,12.77
2017-07-15T04:48:53.055Z,12.76
2017-07-15T04:49:53.100Z,12.77
2017-07-15T04:50:53.095Z,12.79
2017-07-15T04:51:53.021Z,12.77
2017-07-15T04:52:53.116Z,12.77
2017-07-15T04:53:53.065Z,12.76
2017-07-15T04:54:53.099Z,12.79
2017-07-15T04:55:53.101Z,12.80
2017-07-15T04:56:53.088Z,12.80
2017-07-15T04:57:53.122Z,12.79
2017-07-15T04:58:53.032Z,12.77
2017-07-15T04:59:53.088Z,12.80
2017-07-15T05:00:53.130Z,12.80
2017-07-15T05:01:53.070Z,12.83
2017-07-15T05:02:53.065Z,12.86
2017-07-15T05:03:53.095Z,12.89
2017-07-15T05:04:53.039Z,12.92
2017-07-15T05:05:53.074Z,12.95
2017-07-15T05:06:53.043Z,12.96
2017-07-15T05:07:53.091Z,12.98
2017-07-15T05:08:53.042Z,13.02
2017-07-15T05:09:53.110Z,13.05
2017-07-15T05:10:53.073Z,13.06
2017-07-15T05:11:53.106Z,13.10
2017-07-15T05:12:53.100Z,13.16
2017-07-15T05:13:53.066Z,13.17
2017-07-15T05:14:53.113Z,13.18
2017-07-15T05:15:53.062Z,13.23
2017-07-15T05:16:53.060Z,13.24
2017-07-15T05:17:53.097Z,13.25
2017-07-15T05:18:53.033Z,13.29
2017-07-15T05:19:53.073Z,13.31
2017-07-15T05:20:53.069Z,13.35
2017-07-15T05:21:53.037Z,13.42
2017-07-15T05:22:53.035Z,13.39
2017-07-15T05:23:53.097Z,13.40
2017-07-15T05:24:53.050Z,13.43
2017-07-15T05:25:53.043Z,13.43
2017-07-15T05:26:53.045Z,13.43
2017-07-15T05:27:53.113Z,13.42
2017-07-15T05:28:53.083Z,13.43
2017-07-15T05:29:53.053Z,13.49
2017-07-15T05:30:53.090Z,13.50
2017-07-15T05:31:53.143Z,13.50
2017-07-15T05:32:53.048Z,13.49
2017-07-15T05:33:53.122Z,13.50
2017-07-15T05:34:53.145Z,13.53
2017-07-15T05:35:53.115Z,13.50
2017-07-15T05:36:53.128Z,13.51
2017-07-15T05:37:53.089Z,13.50
2017-07-15T05:38:53.142Z,13.49
2017-07-15T05:39:53.124Z,13.51
2017-07-15T05:40:53.110Z,13.49
2017-07-15T05:41:53.054Z,13.47
2017-07-15T05:42:53.058Z,13.51
2017-07-15T05:43:53.082Z,13.50
2017-07-15T05:44:53.063Z,13.50
2017-07-15T05:45:53.121Z,13.51
2017-07-15T05:46:53.123Z,13.50
2017-07-15T05:47:53.124Z,13.49
2017-07-15T05:48:53.058Z,13.47
2017-07-15T05:49:53.066Z,13.50
2017-07-15T05:50:53.091Z,13.51
2017-07-15T05:51:53.160Z,13.53
2017-07-15T05:52:53.129Z,13.59
2017-07-15T05:53:53.096Z,13.57
2017-07-15T05:54:53.060Z,13.53
2017-07-15T05:55:53.061Z,13.51
2017-07-15T05:56:53.096Z,13.49
2017-07-15T05:57:53.118Z,13.50
2017-07-15T05:58:53.134Z,13.53
2017-07-15T05:59:53.071Z,13.54
2017-07-15T06:00:53.122Z,13.56
2017-07-15T06:01:53.142Z,13.54
2017-07-15T06:02:53.066Z,13.53
2017-07-15T06:03:53.126Z,13.53
2017-07-15T06:04:53.106Z,13.56
2017-07-15T06:05:53.140Z,13.54
2017-07-15T06:06:53.160Z,13.56
2017-07-15T06:07:53.107Z,13.56
2017-07-15T06:08:53.074Z,13.56
2017-07-15T06:09:53.167Z,13.57
2017-07-15T06:10:53.100Z,13.54
2017-07-15T06:11:53.090Z,13.53
2017-07-15T06:12:53.165Z,13.56
2017-07-15T06:13:53.148Z,13.57
2017-07-15T06:14:53.127Z,13.62
2017-07-15T06:15:53.126Z,13.64
2017-07-15T06:16:53.100Z,13.66
2017-07-15T06:17:53.163Z,13.68
2017-07-15T06:18:53.066Z,13.70
2017-07-15T06:19:53.066Z,13.69
2017-07-15T06:20:53.253Z,13.72
2017-07-15T06:21:53.137Z,13.72
2017-07-15T06:22:53.072Z,13.72
2017-07-15T06:23:53.131Z,13.70
2017-07-15T06:24:53.100Z,13.73
2017-07-15T06:25:53.106Z,13.72
2017-07-15T06:26:53.078Z,13.73
2017-07-15T06:27:53.102Z,13.72
2017-07-15T06:28:53.077Z,13.72
2017-07-15T06:29:53.149Z,13.72
2017-07-15T06:30:53.065Z,13.75
2017-07-15T06:31:53.088Z,13.76
2017-07-15T06:32:53.106Z,13.81
2017-07-15T06:33:53.096Z,13.81
2017-07-15T06:34:53.108Z,13.84
2017-07-15T06:35:53.197Z,13.86
2017-07-15T06:36:53.077Z,13.91
2017-07-15T06:37:53.011Z,13.92
2017-07-15T06:38:53.011Z,13.93
2017-07-15T06:39:53.081Z,13.95
2017-07-15T06:40:53.091Z,13.93
2017-07-15T06:41:53.018Z,13.98
2017-07-15T06:42:53.087Z,13.95
2017-07-15T06:43:53.096Z,13.98
2017-07-15T06:44:53.028Z,14.02
2017-07-15T06:45:53.093Z,14.04
2017-07-15T06:46:53.104Z,14.09
2017-07-15T06:47:53.076Z,14.09
2017-07-15T06:48:53.087Z,14.11
2017-07-15T06:49:53.111Z,14.17
2017-07-15T06:50:53.095Z,14.24
2017-07-15T06:51:53.116Z,14.29
2017-07-15T06:52:53.036Z,14.33
2017-07-15T06:53:53.074Z,14.35
2017-07-15T06:54:53.134Z,14.42
2017-07-15T06:55:53.082Z,14.43
2017-07-15T06:56:53.094Z,14.53
2017-07-15T06:57:53.146Z,14.62
2017-07-15T06:58:53.083Z,14.75
2017-07-15T06:59:53.099Z,14.84
2017-07-15T07:00:53.097Z,14.86
2017-07-15T07:01:53.119Z,14.87
2017-07-15T07:02:53.097Z,14.86
2017-07-15T07:03:53.102Z,14.89
2017-07-15T07:04:53.075Z,14.89
2017-07-15T07:05:53.121Z,14.80
2017-07-15T07:06:53.116Z,14.78
2017-07-15T07:07:53.090Z,14.72
2017-07-15T07:08:53.113Z,14.72
2017-07-15T07:09:53.118Z,14.75
2017-07-15T07:10:53.085Z,14.76
2017-07-15T07:11:53.123Z,14.78
2017-07-15T07:12:53.042Z,14.82
2017-07-15T07:13:53.044Z,14.87
2017-07-15T07:14:53.132Z,14.91
2017-07-15T07:15:53.110Z,14.92
2017-07-15T07:16:53.200Z,14.89
2017-07-15T07:17:53.203Z,14.86
2017-07-15T07:18:53.184Z,14.83
2017-07-15T07:19:53.107Z,14.87
2017-07-15T07:20:53.136Z,14.91
2017-07-15T07:21:53.136Z,15.00
2017-07-15T07:22:53.116Z,15.03
2017-07-15T07:23:53.203Z,15.06
2017-07-15T07:24:53.142Z,15.06
2017-07-15T07:25:53.166Z,15.10
2017-07-15T07:26:53.146Z,15.13
2017-07-15T07:27:53.113Z,15.11
2017-07-15T07:28:53.172Z,15.14
2017-07-15T07:29:53.185Z,15.10
2017-07-15T07:30:53.210Z,15.07
2017-07-15T07:31:53.148Z,15.08
2017-07-15T07:32:53.153Z,15.11
2017-07-15T07:33:53.213Z,15.13
2017-07-15T07:34:53.185Z,15.10
2017-07-15T07:35:53.178Z,15.13
2017-07-15T07:36:53.154Z,14.98
2017-07-15T07:37:53.214Z,15.03
2017-07-15T07:38:53.123Z,15.10
2017-07-15T07:39:53.156Z,15.17
2017-07-15T07:40:53.128Z,15.22
2017-07-15T07:41:53.216Z,15.28
2017-07-15T07:42:53.129Z,15.33
2017-07-15T07:43:53.128Z,15.35
2017-07-15T07:44:53.119Z,15.31
2017-07-15T07:45:53.054Z,15.35
2017-07-15T07:46:53.088Z,15.35
2017-07-15T07:47:53.037Z,15.40
2017-07-15T07:48:53.114Z,15.39
2017-07-15T07:49:53.053Z,15.37
2017-07-15T07:50:53.055Z,15.40
2017-07-15T07:51:53.064Z,15.47
2017-07-15T07:52:53.116Z,15.54
2017-07-15T07:53:53.094Z,15.58
2017-07-15T07:54:53.116Z,15.64
2017-07-15T07:55:53.145Z,15.66
2017-07-15T07:56:53.157Z,15.66
2017-07-15T07:57:53.118Z,15.72
2017-07-15T07:58:53.153Z,15.73
2017-07-15T07:59:53.188Z,15.72
2017-07-15T08:00:53.124Z,15.61
2017-07-15T08:01:53.126Z,15.48
2017-07-15T08:02:53.159Z,15.46
2017-07-15T08:03:53.152Z,15.46
2017-07-15T08:04:53.194Z,15.47
2017-07-15T08:05:53.140Z,15.44
2017-07-15T08:06:53.233Z,15.43
2017-07-15T08:07:53.211Z,15.42
2017-07-15T08:08:53.178Z,15.44
2017-07-15T08:09:53.167Z,15.48
2017-07-15T08:10:53.214Z,15.55
2017-07-15T08:11:53.199Z,15.58
2017-07-15T08:12:53.199Z,15.55
2017-07-15T08:13:53.140Z,15.53
2017-07-15T08:14:53.204Z,15.55
2017-07-15T08:15:53.149Z,15.53
2017-07-15T08:16:53.232Z,15.66
2017-07-15T08:17:53.199Z,15.97
2017-07-15T08:18:53.167Z,16.24
2017-07-15T08:19:53.233Z,16.46
2017-07-15T08:20:53.153Z,16.70
2017-07-15T08:21:53.182Z,16.81
2017-07-15T08:22:53.206Z,16.76
2017-07-15T08:23:53.217Z,16.83
2017-07-15T08:24:53.181Z,16.87
2017-07-15T08:25:53.179Z,16.94
2017-07-15T08:26:53.152Z,17.06
2017-07-15T08:27:53.172Z,17.03
2017-07-15T08:28:53.151Z,16.98
2017-07-15T08:29:53.178Z,16.91
2017-07-15T08:30:53.175Z,16.83
2017-07-15T08:31:53.209Z,16.80
2017-07-15T08:32:53.242Z,16.73
2017-07-15T08:33:53.190Z,16.72
2017-07-15T08:34:53.244Z,16.81
2017-07-15T08:35:53.192Z,16.98
2017-07-15T08:36:53.225Z,17.05
2017-07-15T08:37:53.158Z,17.06
2017-07-15T08:38:53.224Z,17.08
2017-07-15T08:39:53.248Z,17.14
2017-07-15T08:40:53.209Z,17.22
2017-07-15T08:41:53.228Z,17.32
2017-07-15T08:42:53.189Z,17.29
2017-07-15T08:43:53.162Z,17.29
2017-07-15T08:44:53.250Z,17.32
2017-07-15T08:45:53.189Z,17.35
2017-07-15T08:46:53.193Z,17.43
2017-07-15T08:47:53.153Z,17.35
2017-07-15T08:48:53.183Z,17.32
2017-07-15T08:49:53.234Z,17.31
2017-07-15T08:50:53.194Z,17.47
2017-07-15T08:51:53.248Z,17.60
2017-07-15T08:52:53.270Z,17.66
2017-07-15T08:53:53.229Z,17.68
2017-07-15T08:54:53.236Z,17.65
2017-07-15T08:55:53.309Z,17.65
2017-07-15T08:56:53.187Z,17.69
2017-07-15T08:57:53.189Z,17.65
2017-07-15T08:58:53.224Z,17.65
2017-07-15T08:59:53.234Z,17.65
2017-07-15T09:00:53.181Z,17.65
2017-07-15T09:01:53.176Z,17.49
2017-07-15T09:02:53.141Z,17.42
2017-07-15T09:03:53.169Z,17.25
2017-07-15T09:04:53.147Z,17.16
2017-07-15T09:05:53.226Z,17.02
2017-07-15T09:06:53.201Z,17.05
2017-07-15T09:07:53.180Z,17.12
2017-07-15T09:08:53.238Z,17.09
2017-07-15T09:09:53.257Z,17.09
2017-07-15T09:10:53.258Z,17.06
2017-07-15T09:11:53.239Z,16.98
2017-07-15T09:12:53.227Z,16.81
2017-07-15T09:13:53.263Z,16.74
2017-07-15T09:14:53.212Z,16.69
2017-07-15T09:15:53.194Z,16.63
2017-07-15T09:16:53.234Z,16.63
2017-07-15T09:17:53.139Z,16.65
2017-07-15T09:18:53.170Z,16.59
2017-07-15T09:19:53.187Z,16.62
2017-07-15T09:20:53.146Z,16.65
2017-07-15T09:21:53.148Z,16.72
2017-07-15T09:22:53.198Z,16.79
2017-07-15T09:23:53.198Z,16.79
2017-07-15T09:24:53.242Z,16.72
2017-07-15T09:25:53.185Z,16.76
2017-07-15T09:26:53.268Z,16.80
2017-07-15T09:27:53.233Z,16.77
2017-07-15T09:28:53.274Z,16.83
2017-07-15T09:29:53.180Z,16.87
2017-07-15T09:30:53.187Z,16.91
2017-07-15T09:31:53.187Z,17.02
2017-07-15T09:32:53.203Z,17.08
2017-07-15T09:33:53.185Z,17.13
2017-07-15T09:34:53.184Z,17.14
2017-07-15T09:35:53.158Z,17.14
2017-07-15T09:36:53.151Z,17.25
2017-07-15T09:37:53.206Z,17.37
2017-07-15T09:38:53.210Z,17.44
2017-07-15T09:39:53.199Z,17.50
2017-07-15T09:40:53.205Z,17.62
2017-07-15T09:41:53.165Z,17.62
2017-07-15T09:42:53.208Z,17.68
2017-07-15T09:43:53.160Z,17.73
2017-07-15T09:44:53.186Z,17.68
2017-07-15T09:45:53.227Z,17.64
2017-07-15T09:46:53.281Z,17.54
2017-07-15T09:47:53.289Z,17.44
2017-07-15T09:48:53.199Z,17.40
2017-07-15T09:49:53.213Z,17.37
2017-07-15T09:50:53.260Z,17.33
2017-07-15T09:51:53.227Z,17.24
2017-07-15T09:52:53.263Z,17.13
2017-07-15T09:53:53.293Z,17.09
2017-07-15T09:54:53.285Z,17.14
2017-07-15T09:55:53.252Z,17.16
2017-07-15T09:56:53.249Z,17.18
2017-07-15T09:57:53.260Z,17.22
2017-07-15T09:58:53.226Z,17.29
2017-07-15T09:59:53.234Z,17.29
2017-07-15T10:00:53.328Z,17.35
2017-07-15T10:01:53.233Z,17.47
2017-07-15T10:02:53.203Z,17.62
2017-07-15T10:03:53.201Z,17.80
2017-07-15T10:04:53.297Z,17.92
2017-07-15T10:06:53.346Z,18.12
2017-07-15T10:07:53.239Z,18.25
2017-07-15T10:08:53.157Z,18.51
2017-07-15T10:09:53.228Z,18.58
2017-07-15T10:10:53.200Z,18.84
2017-07-15T10:11:53.223Z,18.99
2017-07-15T10:12:53.229Z,19.17
2017-07-15T10:13:53.159Z,19.25
2017-07-15T10:14:53.217Z,19.33
2017-07-15T10:15:53.211Z,19.43
2017-07-15T10:16:53.234Z,19.40
2017-07-15T10:17:53.243Z,19.05
2017-07-15T10:18:53.207Z,18.90
2017-07-15T10:19:53.219Z,18.87
2017-07-15T10:20:53.307Z,18.95
2017-07-15T10:21:53.215Z,18.70
2017-07-15T10:22:53.282Z,18.66
2017-07-15T10:23:53.284Z,18.61
2017-07-15T10:24:53.305Z,18.41
2017-07-15T10:25:53.304Z,18.21
2017-07-15T10:26:53.214Z,18.09
2017-07-15T10:27:53.216Z,17.95
2017-07-15T10:28:53.253Z,17.85
2017-07-15T10:29:53.215Z,17.69
2017-07-15T10:30:53.215Z,17.46
2017-07-15T10:31:53.252Z,17.35
2017-07-15T10:32:53.222Z,17.31
2017-07-15T10:33:53.219Z,17.24
2017-07-15T10:34:53.277Z,17.18
2017-07-15T10:35:53.218Z,17.18
2017-07-15T10:36:53.288Z,17.22
2017-07-15T10:37:53.252Z,17.14
2017-07-15T10:38:53.281Z,17.10
2017-07-15T10:39:53.255Z,17.06
2017-07-15T10:40:53.259Z,17.10
2017-07-15T10:41:53.317Z,17.13
2017-07-15T10:42:53.272Z,17.18
2017-07-15T10:43:53.290Z,17.22
2017-07-15T10:44:53.319Z,17.26
2017-07-15T10:45:53.315Z,17.35
2017-07-15T10:46:53.320Z,17.37
2017-07-15T10:47:53.259Z,17.53
2017-07-15T10:48:53.225Z,17.61
2017-07-15T10:49:53.227Z,17.69
2017-07-15T10:50:53.233Z,17.80
2017-07-15T10:51:53.226Z,17.83
2017-07-15T10:52:53.250Z,17.91
2017-07-15T10:53:53.263Z,17.88
2017-07-15T10:54:53.232Z,17.91
2017-07-15T10:55:53.285Z,17.91
2017-07-15T10:56:53.296Z,18.06
2017-07-15T10:57:53.234Z,18.28
2017-07-15T10:58:53.233Z,18.29
2017-07-15T10:59:53.303Z,18.25
2017-07-15T11:00:53.307Z,18.35
2017-07-15T11:01:53.326Z,18.59
2017-07-15T11:02:53.256Z,18.47
2017-07-15T11:03:53.270Z,18.46
2017-07-15T11:04:53.267Z,18.44
2017-07-15T11:05:53.251Z,18.28
2017-07-15T11:06:53.251Z,18.14
2017-07-15T11:07:53.254Z,18.06
2017-07-15T11:08:53.259Z,17.99
2017-07-15T11:09:53.258Z,17.84
2017-07-15T11:10:53.250Z,17.83
2017-07-15T11:11:53.262Z,17.84
2017-07-15T11:12:53.253Z,17.88
2017-07-15T11:13:53.308Z,17.89
2017-07-15T11:14:53.254Z,18.00
2017-07-15T11:15:53.235Z,18.10
2017-07-15T11:16:53.258Z,18.29
2017-07-15T11:17:53.237Z,18.62
2017-07-15T11:18:53.247Z,18.98
2017-07-15T11:19:53.245Z,19.24
2017-07-15T11:20:53.380Z,19.31
2017-07-15T11:21:53.198Z,19.39
2017-07-15T11:22:53.252Z,19.57
2017-07-15T11:23:53.245Z,19.79
2017-07-15T11:24:53.263Z,19.88
2017-07-15T11:25:53.181Z,19.88
2017-07-15T11:26:53.246Z,19.94
2017-07-15T11:27:53.234Z,19.73
2017-07-15T11:28:53.261Z,19.65
2017-07-15T11:29:53.259Z,19.80
2017-07-15T11:30:53.262Z,19.68
2017-07-15T11:31:53.260Z,19.47
2017-07-15T11:32:53.302Z,19.40
2017-07-15T11:33:53.228Z,19.10
2017-07-15T11:34:53.247Z,19.01
2017-07-15T11:35:53.326Z,18.81
2017-07-15T11:36:53.277Z,18.55
2017-07-15T11:37:53.324Z,18.40
2017-07-15T11:38:53.257Z,18.40
2017-07-15T11:39:53.260Z,18.40
2017-07-15T11:40:53.343Z,18.41
2017-07-15T11:41:53.255Z,18.43
2017-07-15T11:42:53.283Z,18.43
2017-07-15T11:43:53.320Z,18.52
2017-07-15T11:44:53.324Z,18.66
2017-07-15T11:45:53.354Z,18.77
2017-07-15T11:46:53.263Z,18.84
2017-07-15T11:47:53.285Z,18.77
2017-07-15T11:48:53.317Z,18.88
2017-07-15T11:49:53.355Z,18.73
2017-07-15T11:50:53.266Z,18.70
2017-07-15T11:51:53.291Z,18.72
2017-07-15T11:52:53.336Z,18.79
2017-07-15T11:53:53.355Z,18.81
2017-07-15T11:54:53.357Z,18.81
2017-07-15T11:55:53.305Z,18.84
2017-07-15T11:56:53.287Z,18.84
2017-07-15T11:57:53.299Z,18.83
2017-07-15T11:58:53.289Z,18.87
2017-07-15T11:59:53.299Z,18.84
2017-07-15T12:00:53.330Z,18.86
2017-07-15T12:01:53.340Z,18.92
2017-07-15T12:02:53.305Z,18.97
2017-07-15T12:03:53.355Z,19.01
2017-07-15T12:04:53.277Z,19.13
2017-07-15T12:05:53.309Z,19.25
2017-07-15T12:06:53.339Z,19.21
2017-07-15T12:07:53.308Z,19.15
2017-07-15T12:08:53.310Z,19.10
2017-07-15T12:09:53.299Z,19.01
2017-07-15T12:10:53.305Z,19.05
2017-07-15T12:11:53.311Z,18.99
2017-07-15T12:12:53.341Z,18.98
2017-07-15T12:13:53.340Z,18.91
2017-07-15T12:14:53.359Z,18.97
2017-07-15T12:15:53.308Z,19.08
2017-07-15T12:16:53.278Z,19.20
2017-07-15T12:17:53.330Z,19.29
2017-07-15T12:18:53.298Z,19.57
2017-07-15T12:19:53.361Z,19.84
2017-07-15T12:20:53.342Z,20.02
2017-07-15T12:21:53.342Z,20.17
2017-07-15T12:22:53.303Z,20.41
2017-07-15T12:23:53.306Z,20.83
2017-07-15T12:24:53.302Z,20.69
2017-07-15T12:25:53.214Z,20.41
2017-07-15T12:26:53.284Z,19.98
2017-07-15T12:27:53.243Z,19.90
2017-07-15T12:28:53.219Z,19.96
2017-07-15T12:29:53.331Z,19.92
2017-07-15T12:30:53.279Z,19.91
2017-07-15T12:31:53.296Z,19.85
2017-07-15T12:32:53.218Z,19.87
2017-07-15T12:33:53.282Z,19.81
2017-07-15T12:34:53.219Z,19.66
2017-07-15T12:35:53.297Z,19.53
2017-07-15T12:36:53.309Z,19.36
2017-07-15T12:37:53.265Z,19.28
2017-07-15T12:38:53.282Z,19.29
2017-07-15T12:39:53.296Z,19.27
2017-07-15T12:40:53.312Z,19.28
2017-07-15T12:41:53.320Z,19.24
2017-07-15T12:42:53.244Z,19.32
2017-07-15T12:43:53.255Z,19.29
2017-07-15T12:44:53.299Z,19.29
2017-07-15T12:45:53.267Z,19.36
2017-07-15T12:46:53.329Z,19.46
2017-07-15T12:47:53.300Z,19.65
2017-07-15T12:48:53.378Z,19.79
2017-07-15T12:49:53.320Z,19.91
2017-07-15T12:50:53.328Z,20.03
2017-07-15T12:51:53.351Z,20.28
2017-07-15T12:52:53.334Z,20.32
2017-07-15T12:53:53.324Z,20.47
2017-07-15T12:54:53.388Z,20.57
2017-07-15T12:55:53.350Z,20.70